createdAt,value
2022-08-18T00:02:01.944Z,16.05
2022-08-18T00:04:35.665Z,16.00
2022-08-18T00:07:05.574Z,16.58
2022-08-18T00:09:35.301Z,17.10
2022-08-18T00:12:05.439Z,16.30
2022-08-18T00:14:33.553Z,16.10
2022-08-18T00:17:03.378Z,16.20
2022-08-18T00:19:46.094Z,16.52
2022-08-18T00:22:19.196Z,16.25
2022-08-18T00:24:51.527Z,17.33
2022-08-18T00:27:23.345Z,17.13
2022-08-18T00:29:53.252Z,15.48
2022-08-18T00:32:24.694Z,17.15
2022-08-18T00:34:53.693Z,17.77
2022-08-18T00:37:22.637Z,17.88
2022-08-18T00:39:52.361Z,18.83
2022-08-18T00:42:28.879Z,17.20
2022-08-18T00:45:02.349Z,17.45
2022-08-18T00:47:42.269Z,18.48
2022-08-18T00:50:16.990Z,18.27
2022-08-18T00:52:50.756Z,18.48
2022-08-18T00:55:19.704Z,19.08
2022-08-18T00:57:48.359Z,18.20
2022-08-18T01:00:16.888Z,18.45
2022-08-18T01:02:52.017Z,19.25
2022-08-18T01:05:23.266Z,19.17
2022-08-18T01:07:52.190Z,19.25
2022-08-18T01:10:23.019Z,20.17
2022-08-18T01:12:54.141Z,19.30
2022-08-18T01:15:28.033Z,18.35
2022-08-18T01:18:18.646Z,18.92
2022-08-18T01:21:11.679Z,17.98
2022-08-18T01:23:41.439Z,20.02
2022-08-18T01:26:09.536Z,18.92
2022-08-18T01:28:40.340Z,20.40
2022-08-18T01:31:09.351Z,19.20
2022-08-18T01:33:40.628Z,23.77
2022-08-18T01:36:16.759Z,27.10
2022-08-18T01:38:48.040Z,25.83
2022-08-18T01:41:26.676Z,24.00
2022-08-18T01:43:59.190Z,20.92
2022-08-18T01:46:28.390Z,22.70
2022-08-18T01:48:58.702Z,20.90
2022-08-18T01:51:39.615Z,20.55
2022-08-18T01:54:12.956Z,21.33
2022-08-18T01:56:42.467Z,22.15
2022-08-18T01:59:15.292Z,22.35
2022-08-18T02:01:48.731Z,20.48
2022-08-18T02:04:35.100Z,21.17
2022-08-18T02:07:07.083Z,22.13
2022-08-18T02:09:37.862Z,21.27
2022-08-18T02:12:07.936Z,22.20
2022-08-18T02:14:36.500Z,23.42
2022-08-18T02:17:07.836Z,24.52
2022-08-18T02:19:38.482Z,22.88
2022-08-18T02:22:08.012Z,22.65
2022-08-18T02:24:37.658Z,22.63
2022-08-18T02:27:06.223Z,22.70
2022-08-18T02:29:34.385Z,22.33
2022-08-18T02:32:02.895Z,22.05
2022-08-18T02:34:30.985Z,20.80
2022-08-18T02:37:00.397Z,21.35
2022-08-18T02:39:29.068Z,21.80
2022-08-18T02:41:58.937Z,21.70
2022-08-18T02:44:27.134Z,21.30
2022-08-18T02:46:56.172Z,23.38
2022-08-18T02:49:24.207Z,21.55
2022-08-18T02:51:52.820Z,23.60
2022-08-18T02:54:23.244Z,39.70
2022-08-18T02:56:52.322Z,30.10
2022-08-18T02:59:25.372Z,36.20
2022-08-18T03:01:55.090Z,33.58
2022-08-18T03:04:29.559Z,30.48
2022-08-18T03:07:00.401Z,29.90
2022-08-18T03:09:28.706Z,36.40
2022-08-18T03:11:57.166Z,29.52
2022-08-18T03:14:27.192Z,26.45
2022-08-18T03:16:55.578Z,24.05
2022-08-18T03:19:25.148Z,21.50
2022-08-18T03:21:55.175Z,21.08
2022-08-18T03:24:26.525Z,20.90
2022-08-18T03:26:56.942Z,20.45
2022-08-18T03:29:32.032Z,20.70
2022-08-18T03:32:01.612Z,18.90
2022-08-18T03:34:30.366Z,19.08
2022-08-18T03:36:58.558Z,21.00
2022-08-18T03:39:28.025Z,20.20
2022-08-18T03:42:01.058Z,19.40
2022-08-18T03:44:36.796Z,19.58
2022-08-18T03:47:07.304Z,19.52
2022-08-18T03:49:35.837Z,21.50
2022-08-18T03:52:05.725Z,21.00
2022-08-18T03:54:33.988Z,19.02
2022-08-18T03:57:02.346Z,21.50
2022-08-18T03:59:33.365Z,22.17
2022-08-18T04:02:04.804Z,22.92
2022-08-18T04:04:33.566Z,24.38
2022-08-18T04:07:07.967Z,22.35
2022-08-18T04:09:37.500Z,23.73
2022-08-18T04:12:10.505Z,22.92
2022-08-18T04:14:48.822Z,19.30
2022-08-18T04:17:18.499Z,20.83
2022-08-18T04:19:47.043Z,19.52
2022-08-18T04:22:17.653Z,19.77
2022-08-18T04:24:47.299Z,22.67
2022-08-18T04:27:18.310Z,21.42
2022-08-18T04:29:47.857Z,21.92
2022-08-18T04:32:16.018Z,19.63
2022-08-18T04:34:44.585Z,18.83
2022-08-18T04:37:14.033Z,20.23
2022-08-18T04:39:42.613Z,19.73
2022-08-18T04:42:11.458Z,19.38
2022-08-18T04:44:39.661Z,17.55
2022-08-18T04:47:09.193Z,17.75
2022-08-18T04:49:38.089Z,17.58
2022-08-18T04:52:39.314Z,18.20
2022-08-18T04:55:09.791Z,19.38
2022-08-18T04:57:37.969Z,19.58
2022-08-18T05:00:08.452Z,19.52
2022-08-18T05:02:39.123Z,20.70
2022-08-18T05:05:08.376Z,19.58
2022-08-18T05:07:36.680Z,19.52
2022-08-18T05:10:05.651Z,20.83
2022-08-18T05:12:33.858Z,20.98
2022-08-18T05:15:02.373Z,19.38
2022-08-18T05:17:31.310Z,19.80
2022-08-18T05:20:02.080Z,19.73
2022-08-18T05:22:31.754Z,19.45
2022-08-18T05:25:01.098Z,19.15
2022-08-18T05:27:34.124Z,15.98
2022-08-18T05:30:02.616Z,18.77
2022-08-18T05:32:47.365Z,18.02
2022-08-18T05:35:22.534Z,18.70
2022-08-18T05:37:59.070Z,19.42
2022-08-18T05:40:28.872Z,20.42
2022-08-18T05:42:57.970Z,22.33
2022-08-18T05:45:27.024Z,22.00
2022-08-18T05:47:59.514Z,20.05
2022-08-18T05:50:30.168Z,19.90
2022-08-18T05:53:00.577Z,19.05
2022-08-18T05:55:49.910Z,19.23
2022-08-18T05:58:21.005Z,18.35
2022-08-18T06:03:31.413Z,17.83
2022-08-18T06:06:19.682Z,15.93
2022-08-18T06:08:53.997Z,16.40
2022-08-18T06:11:22.948Z,16.00
2022-08-18T06:13:57.770Z,16.33
2022-08-18T06:16:50.768Z,15.73
2022-08-18T06:19:29.820Z,15.77
2022-08-18T06:22:04.744Z,16.08
2022-08-18T06:24:37.589Z,14.48
2022-08-18T06:27:12.247Z,15.25
2022-08-18T06:29:51.218Z,15.05
2022-08-18T06:32:28.301Z,13.50
2022-08-18T06:35:06.730Z,14.25
2022-08-18T06:38:00.471Z,13.38
2022-08-18T06:40:28.967Z,13.68
2022-08-18T06:42:59.741Z,13.15
2022-08-18T06:45:35.913Z,13.40
2022-08-18T06:48:15.372Z,12.82
2022-08-18T06:50:52.013Z,13.02
2022-08-18T06:53:27.890Z,11.48
2022-08-18T06:55:57.293Z,12.30
2022-08-18T06:58:30.179Z,11.68
2022-08-18T07:01:02.485Z,11.18
2022-08-18T07:03:46.008Z,10.45
2022-08-18T07:06:27.739Z,11.40
2022-08-18T07:09:21.781Z,10.48
2022-08-18T07:12:00.404Z,11.43
2022-08-18T07:14:28.854Z,10.63
2022-08-18T07:17:11.333Z,9.93
2022-08-18T07:19:39.527Z,9.73
2022-08-18T07:22:11.708Z,9.82
2022-08-18T07:24:44.265Z,9.60
2022-08-18T07:27:15.617Z,9.88
2022-08-18T07:30:00.575Z,9.90
2022-08-18T07:32:32.263Z,10.05
2022-08-18T07:35:02.134Z,9.20
2022-08-18T07:37:33.335Z,9.00
2022-08-18T07:40:07.118Z,9.50
2022-08-18T07:43:00.855Z,8.95
2022-08-18T07:45:32.889Z,9.98
2022-08-18T07:48:20.780Z,9.05
2022-08-18T07:51:03.131Z,9.38
2022-08-18T07:53:42.842Z,8.75
2022-08-18T07:56:39.969Z,8.40
2022-08-18T07:59:14.170Z,8.55
2022-08-18T08:01:45.680Z,8.85
2022-08-18T08:04:25.645Z,8.32
2022-08-18T08:07:22.807Z,7.25
2022-08-18T08:09:56.324Z,7.03
2022-08-18T08:12:34.780Z,7.53
2022-08-18T08:15:10.760Z,7.00
2022-08-18T08:17:43.996Z,7.00
2022-08-18T08:20:23.830Z,7.47
2022-08-18T08:23:09.474Z,7.03
2022-08-18T08:25:48.215Z,6.68
2022-08-18T08:28:26.025Z,6.60
2022-08-18T08:31:25.735Z,7.20
2022-08-18T08:33:52.984Z,7.00
2022-08-18T08:36:26.516Z,7.18
2022-08-18T08:38:57.351Z,7.07
2022-08-18T08:41:31.399Z,6.07
2022-08-18T08:44:04.910Z,6.60
2022-08-18T08:46:38.733Z,6.35
2022-08-18T08:49:10.026Z,6.13
2022-08-18T08:51:41.725Z,6.20
2022-08-18T08:54:16.356Z,6.15
2022-08-18T08:56:47.979Z,5.70
2022-08-18T08:59:21.808Z,6.15
2022-08-18T09:01:58.498Z,6.55
2022-08-18T09:04:37.029Z,6.00
2022-08-18T09:07:14.737Z,6.40
2022-08-18T09:10:11.266Z,6.07
2022-08-18T09:13:02.073Z,6.82
2022-08-18T09:15:42.838Z,6.13
2022-08-18T09:18:26.231Z,6.97
2022-08-18T09:21:16.129Z,6.43
2022-08-18T09:23:46.880Z,6.55
2022-08-18T09:26:27.605Z,5.97
2022-08-18T09:28:59.146Z,5.63
2022-08-18T09:31:31.872Z,6.35
2022-08-18T09:34:11.170Z,5.97
2022-08-18T09:36:49.047Z,6.20
2022-08-18T09:39:41.897Z,5.95
2022-08-18T09:42:14.464Z,6.45
2022-08-18T09:45:11.501Z,6.18
2022-08-18T09:48:02.727Z,6.07
2022-08-18T09:50:38.739Z,6.53
2022-08-18T09:53:20.896Z,5.75
2022-08-18T09:56:01.607Z,5.57
2022-08-18T09:58:55.565Z,7.22
2022-08-18T10:01:40.201Z,6.25
2022-08-18T10:04:32.973Z,6.65
2022-08-18T10:07:23.469Z,7.25
2022-08-18T10:11:00.202Z,6.80
2022-08-18T10:13:09.251Z,6.68
2022-08-18T10:15:47.934Z,6.82
2022-08-18T10:18:43.190Z,6.45
2022-08-18T10:21:20.994Z,6.75
2022-08-18T10:24:14.606Z,6.57
2022-08-18T10:27:00.705Z,7.47
2022-08-18T10:29:47.926Z,6.80
2022-08-18T10:32:37.245Z,6.22
2022-08-18T10:35:07.332Z,6.25
2022-08-18T10:37:40.367Z,6.38
2022-08-18T10:40:21.246Z,5.95
2022-08-18T10:42:53.516Z,7.10
2022-08-18T10:45:26.180Z,6.85
2022-08-18T10:48:11.929Z,6.63
2022-08-18T10:50:52.906Z,7.43
2022-08-18T10:53:44.447Z,7.10
2022-08-18T10:56:26.736Z,7.38
2022-08-18T10:59:16.140Z,8.23
2022-08-18T11:02:03.673Z,7.40
2022-08-18T11:04:38.465Z,7.32
2022-08-18T11:07:11.227Z,7.63
2022-08-18T11:09:42.181Z,6.53
2022-08-18T11:12:42.780Z,7.17
2022-08-18T11:15:22.324Z,6.75
2022-08-18T11:18:10.436Z,6.97
2022-08-18T11:20:43.007Z,7.35
2022-08-18T11:23:14.994Z,6.90
2022-08-18T11:25:45.930Z,7.28
2022-08-18T11:28:18.737Z,7.47
2022-08-18T11:30:49.095Z,7.13
2022-08-18T11:33:22.726Z,6.82
2022-08-18T11:35:54.601Z,7.35
2022-08-18T11:41:17.631Z,6.75
2022-08-18T11:43:47.565Z,7.00
2022-08-18T11:46:27.931Z,7.35
2022-08-18T11:48:59.642Z,7.68
2022-08-18T11:51:29.673Z,7.28
2022-08-18T11:54:00.938Z,7.65
2022-08-18T11:56:37.619Z,7.40
2022-08-18T11:59:07.954Z,8.18
2022-08-18T12:01:42.273Z,7.10
2022-08-18T12:04:32.173Z,7.97
2022-08-18T12:10:17.299Z,8.38
2022-08-18T12:12:52.094Z,7.57
2022-08-18T12:15:29.540Z,7.57
2022-08-18T12:18:19.051Z,7.13
2022-08-18T12:20:58.319Z,7.32
2022-08-18T12:23:28.084Z,8.07
2022-08-18T12:29:01.390Z,8.40
2022-08-18T12:31:42.693Z,7.60
2022-08-18T12:34:17.974Z,7.10
2022-08-18T12:36:54.653Z,7.10
2022-08-18T12:39:23.077Z,7.68
2022-08-18T12:41:52.517Z,7.20
2022-08-18T12:44:22.837Z,7.13
2022-08-18T12:46:56.106Z,7.40
2022-08-18T12:49:26.501Z,7.95
2022-08-18T12:54:25.311Z,7.55
2022-08-18T12:56:56.067Z,7.00
2022-08-18T12:59:26.434Z,7.55
2022-08-18T13:02:01.642Z,6.30
2022-08-18T13:04:30.859Z,7.75
2022-08-18T13:07:04.743Z,7.63
2022-08-18T13:09:52.848Z,7.50
2022-08-18T13:12:22.304Z,7.65
2022-08-18T13:14:55.240Z,7.60
2022-08-18T13:17:29.490Z,7.38
2022-08-18T13:20:04.841Z,7.18
2022-08-18T13:25:03.981Z,7.05
2022-08-18T13:27:36.056Z,6.75
2022-08-18T13:30:16.630Z,6.82
2022-08-18T13:33:02.662Z,6.95
2022-08-18T13:35:48.318Z,6.57
2022-08-18T13:38:27.481Z,6.72
2022-08-18T13:40:58.742Z,6.60
2022-08-18T13:43:32.188Z,6.40
2022-08-18T13:46:01.838Z,6.68
2022-08-18T13:48:31.623Z,7.82
2022-08-18T13:51:01.805Z,6.80
2022-08-18T13:53:31.319Z,7.50
2022-08-18T13:56:00.291Z,7.03
2022-08-18T13:58:29.613Z,7.38
2022-08-18T14:01:16.266Z,6.95
2022-08-18T14:03:50.001Z,6.30
2022-08-18T14:06:22.731Z,6.05
2022-08-18T14:08:52.865Z,6.30
2022-08-18T14:11:25.744Z,6.38
2022-08-18T14:13:55.148Z,6.63
2022-08-18T14:16:23.550Z,6.03
2022-08-18T14:19:14.204Z,7.15
2022-08-18T14:22:03.609Z,7.35
2022-08-18T14:24:50.525Z,6.07
2022-08-18T14:27:20.662Z,6.72
2022-08-18T14:29:50.414Z,6.35
2022-08-18T14:32:28.394Z,6.60
2022-08-18T14:35:13.606Z,6.80
2022-08-18T14:37:57.278Z,6.45
2022-08-18T14:40:25.472Z,6.40
2022-08-18T14:42:55.771Z,6.30
2022-08-18T14:45:31.728Z,7.18
2022-08-18T14:48:06.552Z,7.15
2022-08-18T14:50:38.165Z,7.40
2022-08-18T14:53:06.648Z,7.53
2022-08-18T14:55:36.005Z,7.13
2022-08-18T14:58:07.298Z,7.70
2022-08-18T15:00:53.760Z,7.30
2022-08-18T15:03:28.102Z,6.63
2022-08-18T15:06:04.894Z,7.05
2022-08-18T15:08:36.171Z,6.30
2022-08-18T15:11:06.232Z,6.60
2022-08-18T15:13:41.836Z,6.47
2022-08-18T15:16:13.779Z,6.43
2022-08-18T15:18:42.423Z,6.25
2022-08-18T15:21:35.451Z,6.60
2022-08-18T15:24:25.927Z,6.82
2022-08-18T15:26:56.831Z,6.72
2022-08-18T15:29:31.897Z,6.32
2022-08-18T15:32:02.157Z,5.90
2022-08-18T15:34:46.640Z,6.43
2022-08-18T15:37:19.879Z,6.25
2022-08-18T15:39:51.706Z,6.90
2022-08-18T15:42:24.264Z,6.78
2022-08-18T15:44:53.850Z,6.72
2022-08-18T15:47:25.090Z,5.93
2022-08-18T15:49:55.074Z,6.00
2022-08-18T15:52:26.254Z,6.10
2022-08-18T15:54:58.353Z,6.68
2022-08-18T15:57:38.902Z,5.95
2022-08-18T16:00:12.271Z,5.80
2022-08-18T16:02:44.711Z,6.80
2022-08-18T16:05:18.127Z,6.50
2022-08-18T16:07:47.801Z,6.10
2022-08-18T16:10:17.553Z,6.95
2022-08-18T16:12:46.427Z,6.30
2022-08-18T16:15:19.127Z,6.22
2022-08-18T16:17:48.580Z,6.53
2022-08-18T16:20:17.995Z,5.88
2022-08-18T16:22:47.737Z,6.03
2022-08-18T16:25:16.686Z,6.65
2022-08-18T16:27:45.530Z,5.75
2022-08-18T16:30:16.730Z,5.80
2022-08-18T16:32:45.230Z,6.65
2022-08-18T16:35:13.329Z,6.40
2022-08-18T16:37:42.121Z,5.85
2022-08-18T16:40:13.158Z,5.95
2022-08-18T16:42:41.587Z,5.78
2022-08-18T16:45:10.188Z,6.10
2022-08-18T16:47:41.299Z,5.88
2022-08-18T16:50:11.510Z,6.32
2022-08-18T16:52:40.385Z,5.90
2022-08-18T16:55:11.876Z,6.07
2022-08-18T16:57:57.615Z,5.55
2022-08-18T17:00:44.461Z,6.00
2022-08-18T17:03:30.955Z,6.70
2022-08-18T17:06:03.370Z,6.45
2022-08-18T17:08:34.316Z,7.20
2022-08-18T17:11:04.647Z,6.43
2022-08-18T17:13:33.487Z,6.50
2022-08-18T17:16:01.571Z,6.85
2022-08-18T17:18:30.640Z,6.65
2022-08-18T17:21:02.331Z,6.28
2022-08-18T17:23:30.934Z,6.63
2022-08-18T17:25:59.962Z,7.30
2022-08-18T17:28:39.896Z,5.93
2022-08-18T17:31:15.668Z,6.50
2022-08-18T17:33:46.366Z,6.82
2022-08-18T17:36:19.939Z,6.80
2022-08-18T17:38:53.027Z,7.57
2022-08-18T17:41:22.529Z,7.43
2022-08-18T17:43:53.458Z,6.85
2022-08-18T17:46:27.563Z,7.03
2022-08-18T17:48:58.630Z,7.05
2022-08-18T17:51:39.571Z,7.55
2022-08-18T17:54:19.273Z,7.32
2022-08-18T17:56:52.727Z,8.00
2022-08-18T17:59:45.603Z,8.10
2022-08-18T18:02:28.874Z,8.77
2022-08-18T18:04:59.097Z,7.68
2022-08-18T18:07:29.583Z,7.25
2022-08-18T18:10:01.338Z,7.57
2022-08-18T18:12:32.473Z,7.15
2022-08-18T18:15:03.276Z,7.90
2022-08-18T18:20:15.671Z,7.38
2022-08-18T18:22:45.216Z,7.70
2022-08-18T18:25:14.509Z,8.00
2022-08-18T18:27:47.214Z,8.18
2022-08-18T18:30:27.878Z,7.60
2022-08-18T18:33:00.141Z,7.95
2022-08-18T18:35:31.001Z,8.23
2022-08-18T18:38:04.221Z,7.22
2022-08-18T18:40:35.055Z,7.50
2022-08-18T18:43:21.638Z,7.68
2022-08-18T18:46:18.588Z,8.35
2022-08-18T18:48:52.688Z,7.55
2022-08-18T18:51:33.630Z,8.20
2022-08-18T18:54:10.880Z,8.27
2022-08-18T18:56:42.521Z,7.75
2022-08-18T18:59:17.773Z,7.70
2022-08-18T19:01:58.854Z,8.25
2022-08-18T19:04:31.855Z,8.38
2022-08-18T19:07:05.151Z,8.00
2022-08-18T19:09:38.221Z,8.05
2022-08-18T19:12:15.625Z,8.48
2022-08-18T19:14:59.622Z,8.45
2022-08-18T19:17:35.679Z,7.70
2022-08-18T19:20:08.390Z,8.35
2022-08-18T19:22:41.911Z,8.60
2022-08-18T19:25:17.150Z,8.25
2022-08-18T19:27:49.721Z,8.23
2022-08-18T19:30:20.029Z,8.70
2022-08-18T19:32:52.715Z,8.30
2022-08-18T19:35:24.575Z,7.72
2022-08-18T19:38:10.858Z,8.05
2022-08-18T19:40:45.580Z,7.53
2022-08-18T19:43:29.949Z,7.80
2022-08-18T19:46:10.805Z,8.20
2022-08-18T19:51:15.786Z,8.35
2022-08-18T19:53:57.293Z,8.77
2022-08-18T19:56:38.931Z,8.57
2022-08-18T19:59:24.595Z,8.07
2022-08-18T20:02:01.223Z,8.65
2022-08-18T20:04:44.713Z,8.75
2022-08-18T20:07:25.575Z,8.38
2022-08-18T20:10:17.556Z,9.18
2022-08-18T20:12:57.919Z,8.25
2022-08-18T20:15:28.617Z,9.07
2022-08-18T20:18:09.584Z,8.70
2022-08-18T20:20:39.724Z,8.68
2022-08-18T20:23:32.321Z,8.52
2022-08-18T20:26:00.744Z,8.30
2022-08-18T20:28:40.735Z,8.40
2022-08-18T20:31:15.097Z,8.02
2022-08-18T20:33:47.343Z,7.95
2022-08-18T20:36:28.115Z,8.27
2022-08-18T20:38:58.205Z,7.70
2022-08-18T20:41:33.370Z,8.90
2022-08-18T20:44:49.700Z,8.52
2022-08-18T20:47:32.695Z,8.32
2022-08-18T20:50:23.176Z,8.77
2022-08-18T20:53:01.414Z,8.27
2022-08-18T20:55:36.378Z,8.30
2022-08-18T20:58:10.903Z,8.43
2022-08-18T21:00:43.058Z,9.07
2022-08-18T21:03:15.002Z,8.75
2022-08-18T21:05:45.080Z,8.82
2022-08-18T21:08:29.204Z,9.15
2022-08-18T21:10:59.717Z,8.32
2022-08-18T21:13:30.812Z,8.73
2022-08-18T21:16:00.136Z,8.68
2022-08-18T21:18:29.307Z,9.55
2022-08-18T21:20:58.965Z,8.70
2022-08-18T21:23:30.927Z,8.57
2022-08-18T21:26:06.379Z,9.20
2022-08-18T21:28:37.870Z,7.97
2022-08-18T21:31:43.008Z,8.23
2022-08-18T21:33:57.956Z,9.32
2022-08-18T21:36:32.356Z,8.65
2022-08-18T21:39:07.479Z,8.18
2022-08-18T21:41:42.389Z,7.78
2022-08-18T21:44:16.374Z,8.07
2022-08-18T21:46:45.695Z,8.20
2022-08-18T21:49:14.457Z,8.55
2022-08-18T21:51:47.656Z,7.65
2022-08-18T21:54:20.521Z,7.93
2022-08-18T21:56:49.119Z,8.20
2022-08-18T21:59:19.595Z,7.80
2022-08-18T22:01:50.043Z,8.37
2022-08-18T22:04:27.556Z,8.57
2022-08-18T22:06:57.524Z,7.95
2022-08-18T22:09:49.993Z,8.15
2022-08-18T22:12:43.766Z,9.35
2022-08-18T22:15:16.403Z,8.73
2022-08-18T22:17:52.129Z,8.95
2022-08-18T22:20:52.546Z,9.45
2022-08-18T22:23:50.582Z,8.63
2022-08-18T22:26:22.704Z,8.77
2022-08-18T22:28:55.263Z,8.48
2022-08-18T22:31:25.873Z,8.55
2022-08-18T22:33:54.989Z,9.03
2022-08-18T22:36:25.826Z,8.27
2022-08-18T22:38:54.162Z,8.50
2022-08-18T22:41:24.017Z,8.77
2022-08-18T22:43:54.925Z,9.15
2022-08-18T22:46:25.089Z,8.85
2022-08-18T22:48:54.320Z,9.07
2022-08-18T22:51:24.116Z,9.35
2022-08-18T22:53:52.666Z,9.25
2022-08-18T22:56:34.630Z,8.80
2022-08-18T22:59:13.831Z,8.88
2022-08-18T23:01:46.142Z,8.65
2022-08-18T23:04:16.382Z,8.27
2022-08-18T23:06:52.173Z,8.85
2022-08-18T23:09:23.828Z,9.23
2022-08-18T23:11:52.581Z,8.50
2022-08-18T23:14:22.372Z,8.27
2022-08-18T23:16:51.210Z,8.30
2022-08-18T23:19:21.830Z,8.57
2022-08-18T23:21:51.907Z,8.63
2022-08-18T23:24:21.111Z,8.20
2022-08-18T23:26:50.084Z,8.70
2022-08-18T23:29:19.925Z,8.00
2022-08-18T23:31:50.842Z,8.45
2022-08-18T23:36:54.012Z,8.70
2022-08-18T23:39:22.888Z,8.77
2022-08-18T23:41:51.715Z,9.00
2022-08-18T23:44:20.003Z,8.82
2022-08-18T23:46:53.933Z,8.95
2022-08-18T23:49:22.033Z,9.40
2022-08-18T23:51:55.037Z,9.23
2022-08-18T23:54:25.587Z,9.38
2022-08-18T23:56:53.910Z,9.57
2022-08-18T23:59:23.665Z,9.20
